sensor_id;sensor_type;location;lat;lon;timestamp;P1;durP1;ratioP1;P2;durP2;ratioP2
50483;SDS011;36409;52.168;20.878;2024-01-11T00:00:44;126.17;;;48.30;;
50483;SDS011;36409;52.168;20.878;2024-01-11T00:03:34;141.23;;;56.00;;
50483;SDS011;36409;52.168;20.878;2024-01-11T00:06:03;131.67;;;53.13;;
50483;SDS011;36409;52.168;20.878;2024-01-11T00:08:33;133.20;;;50.57;;
50483;SDS011;36409;52.168;20.878;2024-01-11T00:11:03;134.60;;;51.60;;
50483;SDS011;36409;52.168;20.878;2024-01-11T00:13:33;134.90;;;54.07;;
50483;SDS011;36409;52.168;20.878;2024-01-11T00:16:04;131.27;;;54.40;;
50483;SDS011;36409;52.168;20.878;2024-01-11T00:18:36;129.57;;;51.13;;
50483;SDS011;36409;52.168;20.878;2024-01-11T00:21:07;126.17;;;49.17;;
50483;SDS011;36409;52.168;20.878;2024-01-11T00:23:36;132.83;;;50.37;;
50483;SDS011;36409;52.168;20.878;2024-01-11T00:26:05;128.73;;;49.33;;
50483;SDS011;36409;52.168;20.878;2024-01-11T00:28:35;138.00;;;49.35;;
50483;SDS011;36409;52.168;20.878;2024-01-11T00:31:05;111.35;;;44.55;;
50483;SDS011;36409;52.168;20.878;2024-01-11T00:33:38;112.68;;;44.88;;
50483;SDS011;36409;52.168;20.878;2024-01-11T00:36:08;115.63;;;47.93;;
50483;SDS011;36409;52.168;20.878;2024-01-11T00:38:37;125.27;;;48.00;;
50483;SDS011;36409;52.168;20.878;2024-01-11T00:41:06;118.93;;;46.83;;
50483;SDS011;36409;52.168;20.878;2024-01-11T00:43:35;138.73;;;49.40;;
50483;SDS011;36409;52.168;20.878;2024-01-11T00:46:05;114.87;;;45.13;;
50483;SDS011;36409;52.168;20.878;2024-01-11T00:48:37;117.03;;;47.53;;
50483;SDS011;36409;52.168;20.878;2024-01-11T00:51:07;116.40;;;44.03;;
50483;SDS011;36409;52.168;20.878;2024-01-11T00:53:36;118.07;;;46.33;;
50483;SDS011;36409;52.168;20.878;2024-01-11T00:56:15;120.53;;;46.57;;
50483;SDS011;36409;52.168;20.878;2024-01-11T00:58:45;124.97;;;49.53;;
50483;SDS011;36409;52.168;20.878;2024-01-11T01:01:15;116.77;;;45.30;;
50483;SDS011;36409;52.168;20.878;2024-01-11T01:03:44;115.63;;;46.67;;
50483;SDS011;36409;52.168;20.878;2024-01-11T01:06:14;120.57;;;46.97;;
50483;SDS011;36409;52.168;20.878;2024-01-11T01:08:43;126.75;;;49.15;;
50483;SDS011;36409;52.168;20.878;2024-01-11T01:11:13;118.47;;;47.40;;
50483;SDS011;36409;52.168;20.878;2024-01-11T01:13:42;141.43;;;51.37;;
50483;SDS011;36409;52.168;20.878;2024-01-11T01:16:15;106.80;;;43.20;;
50483;SDS011;36409;52.168;20.878;2024-01-11T01:18:47;114.93;;;45.03;;
50483;SDS011;36409;52.168;20.878;2024-01-11T01:21:20;121.07;;;46.30;;
50483;SDS011;36409;52.168;20.878;2024-01-11T01:23:50;127.17;;;47.30;;
50483;SDS011;36409;52.168;20.878;2024-01-11T01:26:19;113.90;;;44.20;;
50483;SDS011;36409;52.168;20.878;2024-01-11T01:28:48;130.13;;;48.40;;
50483;SDS011;36409;52.168;20.878;2024-01-11T01:31:18;118.67;;;48.27;;
50483;SDS011;36409;52.168;20.878;2024-01-11T01:33:47;109.73;;;44.67;;
50483;SDS011;36409;52.168;20.878;2024-01-11T01:36:17;125.13;;;48.63;;
50483;SDS011;36409;52.168;20.878;2024-01-11T01:38:49;122.90;;;50.17;;
50483;SDS011;36409;52.168;20.878;2024-01-11T01:41:18;126.53;;;46.20;;
50483;SDS011;36409;52.168;20.878;2024-01-11T01:43:50;121.67;;;47.57;;
50483;SDS011;36409;52.168;20.878;2024-01-11T01:46:21;121.80;;;49.00;;
50483;SDS011;36409;52.168;20.878;2024-01-11T01:48:52;125.30;;;46.57;;
50483;SDS011;36409;52.168;20.878;2024-01-11T01:51:24;125.93;;;50.37;;
50483;SDS011;36409;52.168;20.878;2024-01-11T01:54:02;120.35;;;46.90;;
50483;SDS011;36409;52.168;20.878;2024-01-11T01:56:32;123.87;;;46.40;;
50483;SDS011;36409;52.168;20.878;2024-01-11T01:59:02;116.47;;;46.97;;
50483;SDS011;36409;52.168;20.878;2024-01-11T02:01:32;128.93;;;46.93;;
50483;SDS011;36409;52.168;20.878;2024-01-11T02:04:03;109.43;;;42.90;;
50483;SDS011;36409;52.168;20.878;2024-01-11T02:06:34;115.00;;;44.27;;
50483;SDS011;36409;52.168;20.878;2024-01-11T02:09:04;123.20;;;44.97;;
50483;SDS011;36409;52.168;20.878;2024-01-11T02:11:36;109.83;;;44.20;;
50483;SDS011;36409;52.168;20.878;2024-01-11T02:14:07;118.97;;;45.27;;
50483;SDS011;36409;52.168;20.878;2024-01-11T02:16:36;112.07;;;42.97;;
50483;SDS011;36409;52.168;20.878;2024-01-11T02:19:06;113.53;;;42.47;;
50483;SDS011;36409;52.168;20.878;2024-01-11T02:21:40;116.85;;;45.65;;
50483;SDS011;36409;52.168;20.878;2024-01-11T02:24:11;116.87;;;42.87;;
50483;SDS011;36409;52.168;20.878;2024-01-11T02:29:27;108.53;;;43.73;;
50483;SDS011;36409;52.168;20.878;2024-01-11T02:31:58;118.77;;;43.73;;
50483;SDS011;36409;52.168;20.878;2024-01-11T02:34:29;108.90;;;44.47;;
50483;SDS011;36409;52.168;20.878;2024-01-11T02:36:59;115.23;;;45.30;;
50483;SDS011;36409;52.168;20.878;2024-01-11T02:39:28;116.13;;;46.23;;
50483;SDS011;36409;52.168;20.878;2024-01-11T02:41:57;111.15;;;42.75;;
50483;SDS011;36409;52.168;20.878;2024-01-11T02:44:27;117.37;;;44.97;;
50483;SDS011;36409;52.168;20.878;2024-01-11T02:46:56;122.37;;;50.37;;
50483;SDS011;36409;52.168;20.878;2024-01-11T02:49:26;111.77;;;45.57;;
50483;SDS011;36409;52.168;20.878;2024-01-11T02:51:55;111.20;;;44.60;;
50483;SDS011;36409;52.168;20.878;2024-01-11T02:54:24;103.23;;;42.40;;
50483;SDS011;36409;52.168;20.878;2024-01-11T02:56:53;96.93;;;38.17;;
50483;SDS011;36409;52.168;20.878;2024-01-11T02:59:24;114.00;;;45.67;;
50483;SDS011;36409;52.168;20.878;2024-01-11T03:01:53;115.53;;;47.80;;
50483;SDS011;36409;52.168;20.878;2024-01-11T03:04:23;104.47;;;42.07;;
50483;SDS011;36409;52.168;20.878;2024-01-11T03:06:52;106.47;;;42.23;;
50483;SDS011;36409;52.168;20.878;2024-01-11T03:09:21;113.97;;;45.90;;
50483;SDS011;36409;52.168;20.878;2024-01-11T03:11:50;103.73;;;42.63;;
50483;SDS011;36409;52.168;20.878;2024-01-11T03:14:19;104.77;;;42.97;;
50483;SDS011;36409;52.168;20.878;2024-01-11T03:16:48;101.27;;;41.97;;
50483;SDS011;36409;52.168;20.878;2024-01-11T03:19:17;98.87;;;41.83;;
50483;SDS011;36409;52.168;20.878;2024-01-11T03:21:47;110.63;;;43.00;;
50483;SDS011;36409;52.168;20.878;2024-01-11T03:24:16;101.73;;;40.93;;
50483;SDS011;36409;52.168;20.878;2024-01-11T03:26:47;95.27;;;36.63;;
50483;SDS011;36409;52.168;20.878;2024-01-11T03:29:16;95.03;;;35.63;;
50483;SDS011;36409;52.168;20.878;2024-01-11T03:31:45;89.93;;;35.43;;
50483;SDS011;36409;52.168;20.878;2024-01-11T03:34:15;107.43;;;41.27;;
50483;SDS011;36409;52.168;20.878;2024-01-11T03:36:47;97.50;;;39.73;;
50483;SDS011;36409;52.168;20.878;2024-01-11T03:39:18;95.87;;;36.97;;
50483;SDS011;36409;52.168;20.878;2024-01-11T03:41:47;86.90;;;37.43;;
50483;SDS011;36409;52.168;20.878;2024-01-11T03:44:18;94.97;;;38.57;;
50483;SDS011;36409;52.168;20.878;2024-01-11T03:46:48;101.87;;;40.40;;
50483;SDS011;36409;52.168;20.878;2024-01-11T03:49:18;94.17;;;38.00;;
50483;SDS011;36409;52.168;20.878;2024-01-11T03:51:47;101.30;;;39.77;;
50483;SDS011;36409;52.168;20.878;2024-01-11T03:54:17;105.00;;;41.27;;
50483;SDS011;36409;52.168;20.878;2024-01-11T03:56:46;103.87;;;39.07;;
50483;SDS011;36409;52.168;20.878;2024-01-11T03:59:17;94.17;;;39.47;;
50483;SDS011;36409;52.168;20.878;2024-01-11T04:01:46;94.27;;;36.67;;
50483;SDS011;36409;52.168;20.878;2024-01-11T04:04:16;92.87;;;37.00;;
50483;SDS011;36409;52.168;20.878;2024-01-11T04:06:44;86.00;;;36.43;;
50483;SDS011;36409;52.168;20.878;2024-01-11T04:09:14;86.47;;;36.47;;
50483;SDS011;36409;52.168;20.878;2024-01-11T04:11:43;96.07;;;39.87;;
50483;SDS011;36409;52.168;20.878;2024-01-11T04:14:12;87.23;;;36.90;;
50483;SDS011;36409;52.168;20.878;2024-01-11T04:16:41;92.70;;;36.87;;
50483;SDS011;36409;52.168;20.878;2024-01-11T04:19:11;108.03;;;41.50;;
50483;SDS011;36409;52.168;20.878;2024-01-11T04:21:40;99.57;;;38.80;;
50483;SDS011;36409;52.168;20.878;2024-01-11T04:24:10;100.30;;;40.60;;
50483;SDS011;36409;52.168;20.878;2024-01-11T04:26:40;109.13;;;41.10;;
50483;SDS011;36409;52.168;20.878;2024-01-11T04:29:09;92.93;;;35.93;;
50483;SDS011;36409;52.168;20.878;2024-01-11T04:31:38;91.53;;;36.83;;
50483;SDS011;36409;52.168;20.878;2024-01-11T04:34:07;92.20;;;38.47;;
50483;SDS011;36409;52.168;20.878;2024-01-11T04:36:37;78.17;;;31.07;;
50483;SDS011;36409;52.168;20.878;2024-01-11T04:39:06;81.03;;;32.37;;
50483;SDS011;36409;52.168;20.878;2024-01-11T04:41:35;96.13;;;35.73;;
50483;SDS011;36409;52.168;20.878;2024-01-11T04:44:05;92.13;;;34.67;;
50483;SDS011;36409;52.168;20.878;2024-01-11T04:46:35;89.77;;;34.23;;
50483;SDS011;36409;52.168;20.878;2024-01-11T04:49:21;97.87;;;37.13;;
50483;SDS011;36409;52.168;20.878;2024-01-11T04:51:50;85.13;;;30.83;;
50483;SDS011;36409;52.168;20.878;2024-01-11T04:54:21;85.13;;;30.90;;
50483;SDS011;36409;52.168;20.878;2024-01-11T04:56:50;89.60;;;34.77;;
50483;SDS011;36409;52.168;20.878;2024-01-11T04:59:19;93.90;;;34.67;;
50483;SDS011;36409;52.168;20.878;2024-01-11T05:01:48;90.57;;;34.90;;
50483;SDS011;36409;52.168;20.878;2024-01-11T05:04:18;79.77;;;31.67;;
50483;SDS011;36409;52.168;20.878;2024-01-11T05:06:47;88.03;;;32.53;;
50483;SDS011;36409;52.168;20.878;2024-01-11T05:09:16;85.10;;;33.23;;
50483;SDS011;36409;52.168;20.878;2024-01-11T05:11:46;72.73;;;31.17;;
50483;SDS011;36409;52.168;20.878;2024-01-11T05:14:15;91.40;;;34.87;;
50483;SDS011;36409;52.168;20.878;2024-01-11T05:16:44;93.13;;;35.63;;
50483;SDS011;36409;52.168;20.878;2024-01-11T05:19:14;91.70;;;35.83;;
50483;SDS011;36409;52.168;20.878;2024-01-11T05:21:43;80.33;;;32.03;;
50483;SDS011;36409;52.168;20.878;2024-01-11T05:24:13;94.90;;;34.63;;
50483;SDS011;36409;52.168;20.878;2024-01-11T05:26:42;77.73;;;32.23;;
50483;SDS011;36409;52.168;20.878;2024-01-11T05:29:11;89.93;;;33.77;;
50483;SDS011;36409;52.168;20.878;2024-01-11T05:31:40;91.43;;;35.20;;
50483;SDS011;36409;52.168;20.878;2024-01-11T05:34:10;82.07;;;32.43;;
50483;SDS011;36409;52.168;20.878;2024-01-11T05:36:41;81.63;;;31.70;;
50483;SDS011;36409;52.168;20.878;2024-01-11T05:39:10;80.23;;;32.60;;
50483;SDS011;36409;52.168;20.878;2024-01-11T05:41:41;81.20;;;30.73;;
50483;SDS011;36409;52.168;20.878;2024-01-11T05:44:13;76.07;;;28.83;;
50483;SDS011;36409;52.168;20.878;2024-01-11T05:46:42;73.17;;;29.17;;
50483;SDS011;36409;52.168;20.878;2024-01-11T05:49:11;64.17;;;26.60;;
50483;SDS011;36409;52.168;20.878;2024-01-11T05:51:41;66.17;;;28.10;;
50483;SDS011;36409;52.168;20.878;2024-01-11T05:54:10;72.30;;;27.70;;
50483;SDS011;36409;52.168;20.878;2024-01-11T05:56:39;69.20;;;27.63;;
50483;SDS011;36409;52.168;20.878;2024-01-11T05:59:08;72.73;;;26.63;;
50483;SDS011;36409;52.168;20.878;2024-01-11T06:01:40;59.60;;;24.97;;
50483;SDS011;36409;52.168;20.878;2024-01-11T06:04:10;61.70;;;25.90;;
50483;SDS011;36409;52.168;20.878;2024-01-11T06:06:41;76.93;;;28.93;;
50483;SDS011;36409;52.168;20.878;2024-01-11T06:09:10;62.23;;;25.70;;
50483;SDS011;36409;52.168;20.878;2024-01-11T06:11:39;59.30;;;24.27;;
50483;SDS011;36409;52.168;20.878;2024-01-11T06:14:09;63.87;;;25.47;;
50483;SDS011;36409;52.168;20.878;2024-01-11T06:16:39;59.57;;;25.33;;
50483;SDS011;36409;52.168;20.878;2024-01-11T06:19:09;61.97;;;26.43;;
50483;SDS011;36409;52.168;20.878;2024-01-11T06:21:39;52.53;;;23.83;;
50483;SDS011;36409;52.168;20.878;2024-01-11T06:24:08;55.10;;;22.95;;
50483;SDS011;36409;52.168;20.878;2024-01-11T06:26:37;51.07;;;22.07;;
50483;SDS011;36409;52.168;20.878;2024-01-11T06:29:06;58.77;;;23.70;;
50483;SDS011;36409;52.168;20.878;2024-01-11T06:31:40;56.87;;;25.10;;
50483;SDS011;36409;52.168;20.878;2024-01-11T06:34:08;60.87;;;23.87;;
50483;SDS011;36409;52.168;20.878;2024-01-11T06:36:37;56.40;;;23.53;;
50483;SDS011;36409;52.168;20.878;2024-01-11T06:39:08;51.37;;;21.20;;
50483;SDS011;36409;52.168;20.878;2024-01-11T06:41:38;54.60;;;22.57;;
50483;SDS011;36409;52.168;20.878;2024-01-11T06:44:07;55.45;;;22.65;;
50483;SDS011;36409;52.168;20.878;2024-01-11T06:46:37;59.60;;;24.30;;
50483;SDS011;36409;52.168;20.878;2024-01-11T06:49:08;62.27;;;23.70;;
50483;SDS011;36409;52.168;20.878;2024-01-11T06:51:38;52.60;;;22.35;;
50483;SDS011;36409;52.168;20.878;2024-01-11T06:54:07;50.13;;;20.60;;
50483;SDS011;36409;52.168;20.878;2024-01-11T06:56:36;58.47;;;23.23;;
50483;SDS011;36409;52.168;20.878;2024-01-11T06:59:06;53.07;;;21.50;;
50483;SDS011;36409;52.168;20.878;2024-01-11T07:01:35;49.30;;;21.93;;
50483;SDS011;36409;52.168;20.878;2024-01-11T07:04:04;46.37;;;19.90;;
50483;SDS011;36409;52.168;20.878;2024-01-11T07:06:35;49.30;;;19.70;;
50483;SDS011;36409;52.168;20.878;2024-01-11T07:09:04;51.43;;;19.13;;
50483;SDS011;36409;52.168;20.878;2024-01-11T07:11:34;41.60;;;17.33;;
50483;SDS011;36409;52.168;20.878;2024-01-11T07:14:04;46.80;;;20.10;;
50483;SDS011;36409;52.168;20.878;2024-01-11T07:16:35;61.30;;;23.65;;
50483;SDS011;36409;52.168;20.878;2024-01-11T07:19:04;58.23;;;23.63;;
50483;SDS011;36409;52.168;20.878;2024-01-11T07:21:34;61.90;;;24.20;;
50483;SDS011;36409;52.168;20.878;2024-01-11T07:24:03;60.33;;;22.87;;
50483;SDS011;36409;52.168;20.878;2024-01-11T07:26:32;49.73;;;21.10;;
50483;SDS011;36409;52.168;20.878;2024-01-11T07:29:01;58.73;;;23.47;;
50483;SDS011;36409;52.168;20.878;2024-01-11T07:31:31;49.97;;;20.30;;
50483;SDS011;36409;52.168;20.878;2024-01-11T07:34:04;55.13;;;20.97;;
50483;SDS011;36409;52.168;20.878;2024-01-11T07:36:34;55.07;;;22.77;;
50483;SDS011;36409;52.168;20.878;2024-01-11T07:39:02;51.73;;;22.47;;
50483;SDS011;36409;52.168;20.878;2024-01-11T07:41:31;65.30;;;23.17;;
50483;SDS011;36409;52.168;20.878;2024-01-11T07:44:00;64.03;;;25.07;;
50483;SDS011;36409;52.168;20.878;2024-01-11T07:46:30;54.80;;;21.07;;
50483;SDS011;36409;52.168;20.878;2024-01-11T07:49:09;63.20;;;22.93;;
50483;SDS011;36409;52.168;20.878;2024-01-11T07:51:38;63.37;;;23.80;;
50483;SDS011;36409;52.168;20.878;2024-01-11T07:54:07;55.20;;;20.60;;
50483;SDS011;36409;52.168;20.878;2024-01-11T07:56:36;53.27;;;23.10;;
50483;SDS011;36409;52.168;20.878;2024-01-11T07:59:05;60.43;;;22.97;;
50483;SDS011;36409;52.168;20.878;2024-01-11T08:01:35;58.70;;;22.37;;
50483;SDS011;36409;52.168;20.878;2024-01-11T08:04:04;59.30;;;21.93;;
50483;SDS011;36409;52.168;20.878;2024-01-11T08:06:33;52.93;;;19.57;;
50483;SDS011;36409;52.168;20.878;2024-01-11T08:09:06;46.33;;;17.97;;
50483;SDS011;36409;52.168;20.878;2024-01-11T08:11:37;59.80;;;23.70;;
50483;SDS011;36409;52.168;20.878;2024-01-11T08:14:14;52.40;;;22.03;;
50483;SDS011;36409;52.168;20.878;2024-01-11T08:16:43;57.93;;;21.03;;
50483;SDS011;36409;52.168;20.878;2024-01-11T08:19:12;57.47;;;20.83;;
50483;SDS011;36409;52.168;20.878;2024-01-11T08:21:42;57.23;;;21.27;;
50483;SDS011;36409;52.168;20.878;2024-01-11T08:24:11;59.77;;;22.13;;
50483;SDS011;36409;52.168;20.878;2024-01-11T08:26:40;56.37;;;22.17;;
50483;SDS011;36409;52.168;20.878;2024-01-11T08:29:10;55.47;;;22.47;;
50483;SDS011;36409;52.168;20.878;2024-01-11T08:31:40;65.13;;;24.83;;
50483;SDS011;36409;52.168;20.878;2024-01-11T08:34:11;68.67;;;23.20;;
50483;SDS011;36409;52.168;20.878;2024-01-11T08:36:40;70.10;;;24.20;;
50483;SDS011;36409;52.168;20.878;2024-01-11T08:39:09;64.67;;;22.70;;
50483;SDS011;36409;52.168;20.878;2024-01-11T08:41:40;62.43;;;22.57;;
50483;SDS011;36409;52.168;20.878;2024-01-11T08:44:10;67.27;;;25.00;;
50483;SDS011;36409;52.168;20.878;2024-01-11T08:46:39;57.87;;;21.77;;
50483;SDS011;36409;52.168;20.878;2024-01-11T08:49:08;64.07;;;24.40;;
50483;SDS011;36409;52.168;20.878;2024-01-11T08:51:37;68.97;;;26.63;;
50483;SDS011;36409;52.168;20.878;2024-01-11T08:54:07;60.17;;;22.47;;
50483;SDS011;36409;52.168;20.878;2024-01-11T08:56:38;60.97;;;22.13;;
50483;SDS011;36409;52.168;20.878;2024-01-11T08:59:09;52.20;;;20.23;;
50483;SDS011;36409;52.168;20.878;2024-01-11T09:01:39;63.17;;;22.40;;
50483;SDS011;36409;52.168;20.878;2024-01-11T09:04:16;50.03;;;17.77;;
50483;SDS011;36409;52.168;20.878;2024-01-11T09:06:46;62.30;;;21.90;;
50483;SDS011;36409;52.168;20.878;2024-01-11T09:09:15;54.97;;;22.90;;
50483;SDS011;36409;52.168;20.878;2024-01-11T09:11:44;64.13;;;23.47;;
50483;SDS011;36409;52.168;20.878;2024-01-11T09:14:13;57.93;;;22.53;;
50483;SDS011;36409;52.168;20.878;2024-01-11T09:16:42;54.50;;;21.97;;
50483;SDS011;36409;52.168;20.878;2024-01-11T09:19:13;57.57;;;21.80;;
50483;SDS011;36409;52.168;20.878;2024-01-11T09:21:42;49.33;;;19.23;;
50483;SDS011;36409;52.168;20.878;2024-01-11T09:24:11;48.17;;;20.67;;
50483;SDS011;36409;52.168;20.878;2024-01-11T09:26:40;54.10;;;21.07;;
50483;SDS011;36409;52.168;20.878;2024-01-11T09:29:10;49.90;;;19.40;;
50483;SDS011;36409;52.168;20.878;2024-01-11T09:31:40;46.87;;;19.03;;
50483;SDS011;36409;52.168;20.878;2024-01-11T09:34:09;55.13;;;22.03;;
50483;SDS011;36409;52.168;20.878;2024-01-11T09:36:40;53.40;;;21.17;;
50483;SDS011;36409;52.168;20.878;2024-01-11T09:39:09;61.57;;;27.73;;
50483;SDS011;36409;52.168;20.878;2024-01-11T09:41:41;64.30;;;25.57;;
50483;SDS011;36409;52.168;20.878;2024-01-11T09:44:26;44.33;;;22.17;;
50483;SDS011;36409;52.168;20.878;2024-01-11T09:46:56;51.67;;;20.20;;
50483;SDS011;36409;52.168;20.878;2024-01-11T09:49:30;51.47;;;22.00;;
50483;SDS011;36409;52.168;20.878;2024-01-11T09:52:01;49.80;;;20.80;;
50483;SDS011;36409;52.168;20.878;2024-01-11T09:54:31;52.10;;;21.37;;
50483;SDS011;36409;52.168;20.878;2024-01-11T09:57:00;50.37;;;20.30;;
50483;SDS011;36409;52.168;20.878;2024-01-11T09:59:32;48.90;;;20.57;;
50483;SDS011;36409;52.168;20.878;2024-01-11T10:02:03;54.67;;;20.70;;
50483;SDS011;36409;52.168;20.878;2024-01-11T10:04:36;52.20;;;21.43;;
50483;SDS011;36409;52.168;20.878;2024-01-11T10:07:05;56.40;;;21.70;;
50483;SDS011;36409;52.168;20.878;2024-01-11T10:09:35;50.63;;;22.33;;
50483;SDS011;36409;52.168;20.878;2024-01-11T10:12:07;54.33;;;21.00;;
50483;SDS011;36409;52.168;20.878;2024-01-11T10:14:37;49.13;;;21.27;;
50483;SDS011;36409;52.168;20.878;2024-01-11T10:17:06;43.17;;;18.90;;
50483;SDS011;36409;52.168;20.878;2024-01-11T10:19:39;46.90;;;20.27;;
50483;SDS011;36409;52.168;20.878;2024-01-11T10:22:09;58.17;;;22.50;;
50483;SDS011;36409;52.168;20.878;2024-01-11T10:24:40;50.50;;;20.60;;
50483;SDS011;36409;52.168;20.878;2024-01-11T10:27:10;59.00;;;23.80;;
50483;SDS011;36409;52.168;20.878;2024-01-11T10:29:39;58.97;;;23.20;;
50483;SDS011;36409;52.168;20.878;2024-01-11T10:32:08;51.77;;;22.30;;
50483;SDS011;36409;52.168;20.878;2024-01-11T10:34:37;56.47;;;22.37;;
50483;SDS011;36409;52.168;20.878;2024-01-11T10:37:08;56.80;;;23.53;;
50483;SDS011;36409;52.168;20.878;2024-01-11T10:39:39;52.40;;;23.07;;
50483;SDS011;36409;52.168;20.878;2024-01-11T10:42:09;54.83;;;23.43;;
50483;SDS011;36409;52.168;20.878;2024-01-11T10:44:42;46.45;;;20.25;;
50483;SDS011;36409;52.168;20.878;2024-01-11T10:47:16;55.30;;;23.90;;
50483;SDS011;36409;52.168;20.878;2024-01-11T10:49:50;60.20;;;22.40;;
50483;SDS011;36409;52.168;20.878;2024-01-11T10:52:26;48.97;;;21.83;;
50483;SDS011;36409;52.168;20.878;2024-01-11T10:55:01;49.97;;;21.37;;
50483;SDS011;36409;52.168;20.878;2024-01-11T10:57:31;55.67;;;22.27;;
50483;SDS011;36409;52.168;20.878;2024-01-11T11:00:02;51.17;;;20.20;;
50483;SDS011;36409;52.168;20.878;2024-01-11T11:02:33;54.93;;;24.50;;
50483;SDS011;36409;52.168;20.878;2024-01-11T11:05:04;67.70;;;25.90;;
50483;SDS011;36409;52.168;20.878;2024-01-11T11:07:38;59.83;;;26.57;;
50483;SDS011;36409;52.168;20.878;2024-01-11T11:10:08;66.20;;;25.50;;
50483;SDS011;36409;52.168;20.878;2024-01-11T11:12:39;66.17;;;24.30;;
50483;SDS011;36409;52.168;20.878;2024-01-11T11:15:10;70.33;;;26.17;;
50483;SDS011;36409;52.168;20.878;2024-01-11T11:17:40;61.63;;;26.63;;
50483;SDS011;36409;52.168;20.878;2024-01-11T11:20:11;74.70;;;26.93;;
50483;SDS011;36409;52.168;20.878;2024-01-11T11:22:41;67.07;;;26.57;;
50483;SDS011;36409;52.168;20.878;2024-01-11T11:25:12;75.70;;;28.97;;
50483;SDS011;36409;52.168;20.878;2024-01-11T11:27:53;72.37;;;27.97;;
50483;SDS011;36409;52.168;20.878;2024-01-11T11:30:24;82.23;;;28.03;;
50483;SDS011;36409;52.168;20.878;2024-01-11T11:32:55;69.70;;;25.63;;
50483;SDS011;36409;52.168;20.878;2024-01-11T11:35:24;75.73;;;28.13;;
50483;SDS011;36409;52.168;20.878;2024-01-11T11:37:57;67.47;;;25.07;;
50483;SDS011;36409;52.168;20.878;2024-01-11T11:40:32;69.27;;;26.60;;
50483;SDS011;36409;52.168;20.878;2024-01-11T11:43:07;76.57;;;27.50;;
50483;SDS011;36409;52.168;20.878;2024-01-11T11:45:36;68.23;;;26.63;;
50483;SDS011;36409;52.168;20.878;2024-01-11T11:51:08;78.00;;;28.73;;
50483;SDS011;36409;52.168;20.878;2024-01-11T11:53:39;74.03;;;27.90;;
50483;SDS011;36409;52.168;20.878;2024-01-11T11:56:09;77.70;;;28.87;;
50483;SDS011;36409;52.168;20.878;2024-01-11T11:58:40;77.03;;;29.63;;
50483;SDS011;36409;52.168;20.878;2024-01-11T12:01:14;76.30;;;27.57;;
50483;SDS011;36409;52.168;20.878;2024-01-11T12:03:45;72.23;;;27.57;;
50483;SDS011;36409;52.168;20.878;2024-01-11T12:06:18;78.67;;;28.07;;
50483;SDS011;36409;52.168;20.878;2024-01-11T12:08:51;78.63;;;28.83;;
50483;SDS011;36409;52.168;20.878;2024-01-11T12:11:25;70.63;;;28.23;;
50483;SDS011;36409;52.168;20.878;2024-01-11T12:13:57;77.87;;;29.57;;
50483;SDS011;36409;52.168;20.878;2024-01-11T12:16:27;74.70;;;28.67;;
50483;SDS011;36409;52.168;20.878;2024-01-11T12:19:02;74.67;;;26.87;;
50483;SDS011;36409;52.168;20.878;2024-01-11T12:21:32;80.43;;;28.50;;
50483;SDS011;36409;52.168;20.878;2024-01-11T12:24:01;68.00;;;27.20;;
50483;SDS011;36409;52.168;20.878;2024-01-11T12:26:31;77.70;;;28.23;;
50483;SDS011;36409;52.168;20.878;2024-01-11T12:29:01;74.87;;;28.90;;
50483;SDS011;36409;52.168;20.878;2024-01-11T12:31:37;75.83;;;29.40;;
50483;SDS011;36409;52.168;20.878;2024-01-11T12:34:06;85.30;;;30.40;;
50483;SDS011;36409;52.168;20.878;2024-01-11T12:36:37;83.83;;;30.70;;
50483;SDS011;36409;52.168;20.878;2024-01-11T12:39:08;80.93;;;31.73;;
50483;SDS011;36409;52.168;20.878;2024-01-11T12:41:41;86.20;;;31.70;;
50483;SDS011;36409;52.168;20.878;2024-01-11T12:44:11;82.23;;;31.97;;
50483;SDS011;36409;52.168;20.878;2024-01-11T12:46:43;82.50;;;31.47;;
50483;SDS011;36409;52.168;20.878;2024-01-11T12:49:12;80.20;;;31.53;;
50483;SDS011;36409;52.168;20.878;2024-01-11T12:51:41;77.73;;;32.00;;
50483;SDS011;36409;52.168;20.878;2024-01-11T12:54:11;79.20;;;32.20;;
50483;SDS011;36409;52.168;20.878;2024-01-11T12:56:41;79.43;;;30.37;;
50483;SDS011;36409;52.168;20.878;2024-01-11T12:59:15;74.37;;;30.27;;
50483;SDS011;36409;52.168;20.878;2024-01-11T13:01:44;81.17;;;33.03;;
50483;SDS011;36409;52.168;20.878;2024-01-11T13:04:14;78.80;;;31.23;;
50483;SDS011;36409;52.168;20.878;2024-01-11T13:06:43;91.37;;;33.40;;
50483;SDS011;36409;52.168;20.878;2024-01-11T13:09:12;68.53;;;28.60;;
50483;SDS011;36409;52.168;20.878;2024-01-11T13:11:41;78.17;;;32.97;;
50483;SDS011;36409;52.168;20.878;2024-01-11T13:14:10;90.73;;;33.77;;
50483;SDS011;36409;52.168;20.878;2024-01-11T13:16:46;77.70;;;31.57;;
50483;SDS011;36409;52.168;20.878;2024-01-11T13:19:16;84.40;;;35.63;;
50483;SDS011;36409;52.168;20.878;2024-01-11T13:21:54;80.47;;;31.03;;
50483;SDS011;36409;52.168;20.878;2024-01-11T13:24:24;76.37;;;31.33;;
50483;SDS011;36409;52.168;20.878;2024-01-11T13:26:56;73.43;;;31.17;;
50483;SDS011;36409;52.168;20.878;2024-01-11T13:29:26;66.23;;;28.50;;
50483;SDS011;36409;52.168;20.878;2024-01-11T13:31:55;63.27;;;26.60;;
50483;SDS011;36409;52.168;20.878;2024-01-11T13:34:32;67.37;;;25.03;;
50483;SDS011;36409;52.168;20.878;2024-01-11T13:37:02;74.20;;;29.65;;
50483;SDS011;36409;52.168;20.878;2024-01-11T13:39:34;77.93;;;29.27;;
50483;SDS011;36409;52.168;20.878;2024-01-11T13:42:04;79.80;;;31.00;;
50483;SDS011;36409;52.168;20.878;2024-01-11T13:44:39;75.07;;;30.70;;
50483;SDS011;36409;52.168;20.878;2024-01-11T13:47:09;82.07;;;34.70;;
50483;SDS011;36409;52.168;20.878;2024-01-11T13:49:40;87.90;;;33.77;;
50483;SDS011;36409;52.168;20.878;2024-01-11T13:52:10;89.93;;;34.13;;
50483;SDS011;36409;52.168;20.878;2024-01-11T13:54:39;84.47;;;32.77;;
50483;SDS011;36409;52.168;20.878;2024-01-11T13:57:08;83.77;;;32.77;;
50483;SDS011;36409;52.168;20.878;2024-01-11T13:59:37;85.37;;;34.73;;
50483;SDS011;36409;52.168;20.878;2024-01-11T14:02:07;89.20;;;38.83;;
50483;SDS011;36409;52.168;20.878;2024-01-11T14:04:44;90.20;;;34.77;;
50483;SDS011;36409;52.168;20.878;2024-01-11T14:07:14;85.17;;;34.63;;
50483;SDS011;36409;52.168;20.878;2024-01-11T14:09:49;92.20;;;37.53;;
50483;SDS011;36409;52.168;20.878;2024-01-11T14:12:19;79.27;;;33.90;;
50483;SDS011;36409;52.168;20.878;2024-01-11T14:14:49;85.40;;;34.17;;
50483;SDS011;36409;52.168;20.878;2024-01-11T14:17:20;72.80;;;28.93;;
50483;SDS011;36409;52.168;20.878;2024-01-11T14:19:49;79.97;;;32.70;;
50483;SDS011;36409;52.168;20.878;2024-01-11T14:22:20;86.63;;;33.47;;
50483;SDS011;36409;52.168;20.878;2024-01-11T14:24:53;77.03;;;31.23;;
50483;SDS011;36409;52.168;20.878;2024-01-11T14:27:23;80.10;;;31.17;;
50483;SDS011;36409;52.168;20.878;2024-01-11T14:29:53;82.60;;;33.07;;